sensor_id;sensor_type;location;lat;lon;timestamp;P1;durP1;ratioP1;P2;durP2;ratioP2
13085;SDS011;6609;49.882;8.664;2022-09-21T00:01:10;3.20;;;1.77;;
13085;SDS011;6609;49.882;8.664;2022-09-21T00:03:39;3.60;;;1.30;;
13085;SDS011;6609;49.882;8.664;2022-09-21T00:06:07;4.40;;;1.83;;
13085;SDS011;6609;49.882;8.664;2022-09-21T00:08:36;4.07;;;2.20;;
13085;SDS011;6609;49.882;8.664;2022-09-21T00:11:03;6.70;;;2.13;;
13085;SDS011;6609;49.882;8.664;2022-09-21T00:13:31;4.63;;;2.20;;
13085;SDS011;6609;49.882;8.664;2022-09-21T00:15:59;3.50;;;2.30;;
13085;SDS011;6609;49.882;8.664;2022-09-21T00:18:26;4.03;;;2.30;;
13085;SDS011;6609;49.882;8.664;2022-09-21T00:20:55;6.23;;;2.07;;
13085;SDS011;6609;49.882;8.664;2022-09-21T00:23:21;2.33;;;1.70;;
13085;SDS011;6609;49.882;8.664;2022-09-21T00:25:48;2.33;;;1.97;;
13085;SDS011;6609;49.882;8.664;2022-09-21T00:28:15;3.30;;;1.93;;
13085;SDS011;6609;49.882;8.664;2022-09-21T00:30:42;3.30;;;1.60;;
13085;SDS011;6609;49.882;8.664;2022-09-21T00:33:09;4.23;;;2.20;;
13085;SDS011;6609;49.882;8.664;2022-09-21T00:35:36;5.07;;;2.20;;
13085;SDS011;6609;49.882;8.664;2022-09-21T00:38:04;3.97;;;2.83;;
13085;SDS011;6609;49.882;8.664;2022-09-21T00:40:32;5.70;;;2.60;;
13085;SDS011;6609;49.882;8.664;2022-09-21T00:43:10;2.50;;;2.30;;
13085;SDS011;6609;49.882;8.664;2022-09-21T00:45:37;4.43;;;2.07;;
13085;SDS011;6609;49.882;8.664;2022-09-21T00:48:04;3.33;;;2.20;;
13085;SDS011;6609;49.882;8.664;2022-09-21T00:50:31;3.70;;;2.20;;
13085;SDS011;6609;49.882;8.664;2022-09-21T00:52:59;3.60;;;2.60;;
13085;SDS011;6609;49.882;8.664;2022-09-21T00:55:28;6.30;;;2.37;;
13085;SDS011;6609;49.882;8.664;2022-09-21T00:57:57;3.47;;;2.53;;
13085;SDS011;6609;49.882;8.664;2022-09-21T01:00:26;3.03;;;2.10;;
13085;SDS011;6609;49.882;8.664;2022-09-21T01:02:53;3.70;;;2.37;;
13085;SDS011;6609;49.882;8.664;2022-09-21T01:05:26;3.50;;;2.20;;
13085;SDS011;6609;49.882;8.664;2022-09-21T01:07:52;6.73;;;2.50;;
13085;SDS011;6609;49.882;8.664;2022-09-21T01:10:20;6.83;;;2.20;;
13085;SDS011;6609;49.882;8.664;2022-09-21T01:12:57;4.80;;;2.30;;
13085;SDS011;6609;49.882;8.664;2022-09-21T01:15:35;4.47;;;2.57;;
13085;SDS011;6609;49.882;8.664;2022-09-21T01:18:09;3.67;;;1.67;;
13085;SDS011;6609;49.882;8.664;2022-09-21T01:20:48;4.37;;;2.37;;
13085;SDS011;6609;49.882;8.664;2022-09-21T01:23:50;4.33;;;2.40;;
13085;SDS011;6609;49.882;8.664;2022-09-21T01:26:38;2.23;;;1.97;;
13085;SDS011;6609;49.882;8.664;2022-09-21T01:29:18;3.43;;;2.00;;
13085;SDS011;6609;49.882;8.664;2022-09-21T01:31:48;4.97;;;1.87;;
13085;SDS011;6609;49.882;8.664;2022-09-21T01:34:20;5.73;;;2.20;;
13085;SDS011;6609;49.882;8.664;2022-09-21T01:36:52;6.00;;;2.80;;
13085;SDS011;6609;49.882;8.664;2022-09-21T01:39:20;3.43;;;2.37;;
13085;SDS011;6609;49.882;8.664;2022-09-21T01:41:50;6.57;;;2.30;;
13085;SDS011;6609;49.882;8.664;2022-09-21T01:44:21;5.73;;;2.20;;
13085;SDS011;6609;49.882;8.664;2022-09-21T01:46:51;3.40;;;2.60;;
13085;SDS011;6609;49.882;8.664;2022-09-21T01:49:19;3.80;;;2.90;;
13085;SDS011;6609;49.882;8.664;2022-09-21T01:51:51;4.57;;;2.93;;
13085;SDS011;6609;49.882;8.664;2022-09-21T01:54:23;7.20;;;3.60;;
13085;SDS011;6609;49.882;8.664;2022-09-21T01:56:57;7.53;;;3.40;;
13085;SDS011;6609;49.882;8.664;2022-09-21T01:59:31;3.63;;;2.90;;
13085;SDS011;6609;49.882;8.664;2022-09-21T02:02:08;7.40;;;3.30;;
13085;SDS011;6609;49.882;8.664;2022-09-21T02:04:38;9.10;;;3.20;;
13085;SDS011;6609;49.882;8.664;2022-09-21T02:07:04;5.03;;;2.67;;
13085;SDS011;6609;49.882;8.664;2022-09-21T02:09:32;7.30;;;3.73;;
13085;SDS011;6609;49.882;8.664;2022-09-21T02:12:00;6.33;;;3.00;;
13085;SDS011;6609;49.882;8.664;2022-09-21T02:14:27;4.57;;;3.17;;
13085;SDS011;6609;49.882;8.664;2022-09-21T02:17:00;3.87;;;3.47;;
13085;SDS011;6609;49.882;8.664;2022-09-21T02:19:35;4.40;;;3.00;;
13085;SDS011;6609;49.882;8.664;2022-09-21T02:22:10;5.73;;;3.50;;
13085;SDS011;6609;49.882;8.664;2022-09-21T02:24:41;9.37;;;3.30;;
13085;SDS011;6609;49.882;8.664;2022-09-21T02:27:13;4.27;;;3.20;;
13085;SDS011;6609;49.882;8.664;2022-09-21T02:29:46;5.53;;;3.97;;
13085;SDS011;6609;49.882;8.664;2022-09-21T02:32:19;4.97;;;3.13;;
13085;SDS011;6609;49.882;8.664;2022-09-21T02:34:52;5.53;;;3.23;;
13085;SDS011;6609;49.882;8.664;2022-09-21T02:37:27;7.87;;;3.00;;
13085;SDS011;6609;49.882;8.664;2022-09-21T02:40:02;5.37;;;3.30;;
13085;SDS011;6609;49.882;8.664;2022-09-21T02:42:35;6.20;;;3.40;;
13085;SDS011;6609;49.882;8.664;2022-09-21T02:45:07;9.10;;;3.63;;
13085;SDS011;6609;49.882;8.664;2022-09-21T02:47:41;7.43;;;4.30;;
13085;SDS011;6609;49.882;8.664;2022-09-21T02:50:14;6.07;;;3.80;;
13085;SDS011;6609;49.882;8.664;2022-09-21T02:52:45;6.93;;;3.87;;
13085;SDS011;6609;49.882;8.664;2022-09-21T02:55:12;4.90;;;3.60;;
13085;SDS011;6609;49.882;8.664;2022-09-21T02:57:43;7.13;;;4.03;;
13085;SDS011;6609;49.882;8.664;2022-09-21T03:00:12;8.23;;;4.00;;
13085;SDS011;6609;49.882;8.664;2022-09-21T03:02:42;4.47;;;3.40;;
13085;SDS011;6609;49.882;8.664;2022-09-21T03:05:10;6.60;;;3.70;;
13085;SDS011;6609;49.882;8.664;2022-09-21T03:07:37;7.07;;;3.50;;
13085;SDS011;6609;49.882;8.664;2022-09-21T03:10:05;6.70;;;3.83;;
13085;SDS011;6609;49.882;8.664;2022-09-21T03:12:33;9.27;;;3.70;;
13085;SDS011;6609;49.882;8.664;2022-09-21T03:15:01;14.33;;;5.47;;
13085;SDS011;6609;49.882;8.664;2022-09-21T03:17:27;5.40;;;3.20;;
13085;SDS011;6609;49.882;8.664;2022-09-21T03:19:56;3.70;;;3.10;;
13085;SDS011;6609;49.882;8.664;2022-09-21T03:22:23;5.07;;;3.10;;
13085;SDS011;6609;49.882;8.664;2022-09-21T03:24:50;6.57;;;3.03;;
13085;SDS011;6609;49.882;8.664;2022-09-21T03:27:21;5.60;;;3.53;;
13085;SDS011;6609;49.882;8.664;2022-09-21T03:29:48;6.27;;;4.10;;
13085;SDS011;6609;49.882;8.664;2022-09-21T03:32:15;5.53;;;3.87;;
13085;SDS011;6609;49.882;8.664;2022-09-21T03:34:42;9.33;;;4.30;;
13085;SDS011;6609;49.882;8.664;2022-09-21T03:37:10;6.47;;;4.30;;
13085;SDS011;6609;49.882;8.664;2022-09-21T03:39:37;6.83;;;4.40;;
13085;SDS011;6609;49.882;8.664;2022-09-21T03:42:03;8.47;;;4.53;;
13085;SDS011;6609;49.882;8.664;2022-09-21T03:44:30;4.77;;;3.80;;
13085;SDS011;6609;49.882;8.664;2022-09-21T03:46:57;6.10;;;4.00;;
13085;SDS011;6609;49.882;8.664;2022-09-21T03:49:24;5.50;;;3.83;;
13085;SDS011;6609;49.882;8.664;2022-09-21T03:51:51;6.20;;;4.57;;
13085;SDS011;6609;49.882;8.664;2022-09-21T03:54:20;8.97;;;3.97;;
13085;SDS011;6609;49.882;8.664;2022-09-21T03:56:47;11.70;;;3.87;;
13085;SDS011;6609;49.882;8.664;2022-09-21T03:59:14;7.27;;;3.87;;
13085;SDS011;6609;49.882;8.664;2022-09-21T04:01:41;8.27;;;3.80;;
13085;SDS011;6609;49.882;8.664;2022-09-21T04:04:08;5.30;;;3.77;;
13085;SDS011;6609;49.882;8.664;2022-09-21T04:06:35;5.63;;;3.83;;
13085;SDS011;6609;49.882;8.664;2022-09-21T04:09:02;6.47;;;3.27;;
13085;SDS011;6609;49.882;8.664;2022-09-21T04:11:30;8.33;;;3.87;;
13085;SDS011;6609;49.882;8.664;2022-09-21T04:13:57;5.13;;;3.13;;
13085;SDS011;6609;49.882;8.664;2022-09-21T04:16:24;5.63;;;3.60;;
13085;SDS011;6609;49.882;8.664;2022-09-21T04:18:51;5.57;;;3.47;;
13085;SDS011;6609;49.882;8.664;2022-09-21T04:21:19;5.83;;;3.37;;
13085;SDS011;6609;49.882;8.664;2022-09-21T04:23:46;5.00;;;3.20;;
13085;SDS011;6609;49.882;8.664;2022-09-21T04:26:21;10.73;;;3.30;;
13085;SDS011;6609;49.882;8.664;2022-09-21T04:28:50;6.77;;;3.47;;
13085;SDS011;6609;49.882;8.664;2022-09-21T04:31:18;5.67;;;3.93;;
13085;SDS011;6609;49.882;8.664;2022-09-21T04:33:46;3.93;;;3.03;;
13085;SDS011;6609;49.882;8.664;2022-09-21T04:36:13;5.97;;;3.40;;
13085;SDS011;6609;49.882;8.664;2022-09-21T04:38:40;6.43;;;3.77;;
13085;SDS011;6609;49.882;8.664;2022-09-21T04:41:07;4.40;;;3.47;;
13085;SDS011;6609;49.882;8.664;2022-09-21T04:43:35;5.10;;;3.03;;
13085;SDS011;6609;49.882;8.664;2022-09-21T04:46:04;5.00;;;3.37;;
13085;SDS011;6609;49.882;8.664;2022-09-21T04:48:31;6.40;;;4.33;;
13085;SDS011;6609;49.882;8.664;2022-09-21T04:50:58;4.87;;;3.70;;
13085;SDS011;6609;49.882;8.664;2022-09-21T04:53:25;5.17;;;3.67;;
13085;SDS011;6609;49.882;8.664;2022-09-21T04:55:52;6.83;;;3.53;;
13085;SDS011;6609;49.882;8.664;2022-09-21T04:58:19;7.53;;;3.70;;
13085;SDS011;6609;49.882;8.664;2022-09-21T05:00:47;6.83;;;3.50;;
13085;SDS011;6609;49.882;8.664;2022-09-21T05:03:16;7.47;;;3.63;;
13085;SDS011;6609;49.882;8.664;2022-09-21T05:05:45;5.93;;;2.80;;
13085;SDS011;6609;49.882;8.664;2022-09-21T05:08:13;8.63;;;3.27;;
13085;SDS011;6609;49.882;8.664;2022-09-21T05:10:39;4.00;;;3.07;;
13085;SDS011;6609;49.882;8.664;2022-09-21T05:13:05;4.90;;;3.30;;
13085;SDS011;6609;49.882;8.664;2022-09-21T05:15:32;5.10;;;3.13;;
13085;SDS011;6609;49.882;8.664;2022-09-21T05:17:59;3.20;;;2.87;;
13085;SDS011;6609;49.882;8.664;2022-09-21T05:20:28;4.23;;;3.10;;
13085;SDS011;6609;49.882;8.664;2022-09-21T05:22:58;4.23;;;3.73;;
13085;SDS011;6609;49.882;8.664;2022-09-21T05:25:26;5.80;;;3.10;;
13085;SDS011;6609;49.882;8.664;2022-09-21T05:27:52;5.27;;;3.00;;
13085;SDS011;6609;49.882;8.664;2022-09-21T05:30:20;3.43;;;2.97;;
13085;SDS011;6609;49.882;8.664;2022-09-21T05:32:48;4.20;;;2.80;;
13085;SDS011;6609;49.882;8.664;2022-09-21T05:35:23;4.27;;;2.80;;
13085;SDS011;6609;49.882;8.664;2022-09-21T05:38:00;6.43;;;3.23;;
13085;SDS011;6609;49.882;8.664;2022-09-21T05:40:32;7.53;;;3.03;;
13085;SDS011;6609;49.882;8.664;2022-09-21T05:43:00;4.53;;;2.97;;
13085;SDS011;6609;49.882;8.664;2022-09-21T05:45:27;5.07;;;3.13;;
13085;SDS011;6609;49.882;8.664;2022-09-21T05:47:55;5.03;;;3.27;;
13085;SDS011;6609;49.882;8.664;2022-09-21T05:50:36;7.13;;;3.37;;
13085;SDS011;6609;49.882;8.664;2022-09-21T05:56:11;4.13;;;3.17;;
13085;SDS011;6609;49.882;8.664;2022-09-21T05:58:46;4.70;;;2.50;;
13085;SDS011;6609;49.882;8.664;2022-09-21T06:01:19;3.23;;;2.93;;
13085;SDS011;6609;49.882;8.664;2022-09-21T06:03:55;3.53;;;2.63;;
13085;SDS011;6609;49.882;8.664;2022-09-21T06:06:24;2.40;;;2.20;;
13085;SDS011;6609;49.882;8.664;2022-09-21T06:08:51;3.70;;;2.83;;
13085;SDS011;6609;49.882;8.664;2022-09-21T06:11:18;3.60;;;2.27;;
13085;SDS011;6609;49.882;8.664;2022-09-21T06:13:45;3.07;;;2.43;;
13085;SDS011;6609;49.882;8.664;2022-09-21T06:16:12;5.20;;;2.60;;
13085;SDS011;6609;49.882;8.664;2022-09-21T06:18:39;2.90;;;2.53;;
13085;SDS011;6609;49.882;8.664;2022-09-21T06:21:06;3.53;;;2.43;;
13085;SDS011;6609;49.882;8.664;2022-09-21T06:23:35;4.00;;;2.60;;
13085;SDS011;6609;49.882;8.664;2022-09-21T06:26:02;3.83;;;2.50;;
13085;SDS011;6609;49.882;8.664;2022-09-21T06:28:29;3.20;;;2.90;;
13085;SDS011;6609;49.882;8.664;2022-09-21T06:30:56;5.17;;;3.63;;
13085;SDS011;6609;49.882;8.664;2022-09-21T06:33:23;10.43;;;4.20;;
13085;SDS011;6609;49.882;8.664;2022-09-21T06:35:50;12.70;;;7.00;;
13085;SDS011;6609;49.882;8.664;2022-09-21T06:38:18;8.20;;;3.87;;
13085;SDS011;6609;49.882;8.664;2022-09-21T06:40:47;4.23;;;3.17;;
13085;SDS011;6609;49.882;8.664;2022-09-21T06:43:14;7.07;;;4.10;;
13085;SDS011;6609;49.882;8.664;2022-09-21T06:45:41;5.93;;;3.10;;
13085;SDS011;6609;49.882;8.664;2022-09-21T06:48:08;7.63;;;3.23;;
13085;SDS011;6609;49.882;8.664;2022-09-21T06:50:35;3.97;;;3.20;;
13085;SDS011;6609;49.882;8.664;2022-09-21T06:53:02;5.93;;;3.27;;
13085;SDS011;6609;49.882;8.664;2022-09-21T06:55:29;4.57;;;3.20;;
13085;SDS011;6609;49.882;8.664;2022-09-21T06:58:00;4.43;;;3.37;;
13085;SDS011;6609;49.882;8.664;2022-09-21T07:00:27;4.00;;;2.83;;
13085;SDS011;6609;49.882;8.664;2022-09-21T07:02:54;4.13;;;3.07;;
13085;SDS011;6609;49.882;8.664;2022-09-21T07:05:21;4.13;;;3.23;;
13085;SDS011;6609;49.882;8.664;2022-09-21T07:07:48;6.17;;;2.93;;
13085;SDS011;6609;49.882;8.664;2022-09-21T07:10:15;6.83;;;3.40;;
13085;SDS011;6609;49.882;8.664;2022-09-21T07:12:42;4.87;;;3.00;;
13085;SDS011;6609;49.882;8.664;2022-09-21T07:15:11;4.20;;;3.17;;
13085;SDS011;6609;49.882;8.664;2022-09-21T07:17:38;4.40;;;3.20;;
13085;SDS011;6609;49.882;8.664;2022-09-21T07:20:06;3.30;;;2.87;;
13085;SDS011;6609;49.882;8.664;2022-09-21T07:22:33;6.20;;;3.17;;
13085;SDS011;6609;49.882;8.664;2022-09-21T07:25:00;4.03;;;3.30;;
13085;SDS011;6609;49.882;8.664;2022-09-21T07:27:28;3.53;;;3.20;;
13085;SDS011;6609;49.882;8.664;2022-09-21T07:29:56;4.43;;;3.07;;
13085;SDS011;6609;49.882;8.664;2022-09-21T07:32:24;3.97;;;3.17;;
13085;SDS011;6609;49.882;8.664;2022-09-21T07:34:51;3.00;;;2.70;;
13085;SDS011;6609;49.882;8.664;2022-09-21T07:37:20;5.03;;;3.00;;
13085;SDS011;6609;49.882;8.664;2022-09-21T07:39:48;7.23;;;2.93;;
13085;SDS011;6609;49.882;8.664;2022-09-21T07:42:15;3.40;;;2.63;;
13085;SDS011;6609;49.882;8.664;2022-09-21T07:44:44;4.33;;;2.80;;
13085;SDS011;6609;49.882;8.664;2022-09-21T07:47:11;4.37;;;2.70;;
13085;SDS011;6609;49.882;8.664;2022-09-21T07:49:40;4.33;;;3.03;;
13085;SDS011;6609;49.882;8.664;2022-09-21T07:52:07;3.27;;;2.63;;
13085;SDS011;6609;49.882;8.664;2022-09-21T07:54:34;5.97;;;3.10;;
13085;SDS011;6609;49.882;8.664;2022-09-21T07:57:02;3.70;;;2.77;;
13085;SDS011;6609;49.882;8.664;2022-09-21T07:59:46;3.53;;;3.20;;
13085;SDS011;6609;49.882;8.664;2022-09-21T08:02:13;4.40;;;2.97;;
13085;SDS011;6609;49.882;8.664;2022-09-21T08:04:41;5.00;;;3.23;;
13085;SDS011;6609;49.882;8.664;2022-09-21T08:07:08;3.40;;;2.77;;
13085;SDS011;6609;49.882;8.664;2022-09-21T08:09:36;4.33;;;2.90;;
13085;SDS011;6609;49.882;8.664;2022-09-21T08:12:03;4.00;;;3.00;;
13085;SDS011;6609;49.882;8.664;2022-09-21T08:14:31;4.33;;;2.50;;
13085;SDS011;6609;49.882;8.664;2022-09-21T08:16:58;3.33;;;2.63;;
13085;SDS011;6609;49.882;8.664;2022-09-21T08:19:25;3.83;;;2.47;;
13085;SDS011;6609;49.882;8.664;2022-09-21T08:21:54;2.53;;;2.33;;
13085;SDS011;6609;49.882;8.664;2022-09-21T08:24:20;4.40;;;2.60;;
13085;SDS011;6609;49.882;8.664;2022-09-21T08:26:47;2.90;;;2.57;;
13085;SDS011;6609;49.882;8.664;2022-09-21T08:29:16;3.20;;;2.40;;
13085;SDS011;6609;49.882;8.664;2022-09-21T08:31:42;3.07;;;2.37;;
13085;SDS011;6609;49.882;8.664;2022-09-21T08:34:10;4.00;;;3.20;;
13085;SDS011;6609;49.882;8.664;2022-09-21T08:36:37;3.27;;;2.97;;
13085;SDS011;6609;49.882;8.664;2022-09-21T08:39:06;3.47;;;2.77;;
13085;SDS011;6609;49.882;8.664;2022-09-21T08:41:43;3.60;;;3.27;;
13085;SDS011;6609;49.882;8.664;2022-09-21T08:44:38;2.40;;;2.20;;
13085;SDS011;6609;49.882;8.664;2022-09-21T08:47:10;3.70;;;2.00;;
13085;SDS011;6609;49.882;8.664;2022-09-21T08:49:40;2.77;;;2.00;;
13085;SDS011;6609;49.882;8.664;2022-09-21T08:52:13;3.40;;;2.07;;
13085;SDS011;6609;49.882;8.664;2022-09-21T08:54:45;3.03;;;1.90;;
13085;SDS011;6609;49.882;8.664;2022-09-21T08:57:17;2.30;;;2.10;;
13085;SDS011;6609;49.882;8.664;2022-09-21T08:59:45;2.70;;;2.30;;
13085;SDS011;6609;49.882;8.664;2022-09-21T09:02:20;3.37;;;1.87;;
13085;SDS011;6609;49.882;8.664;2022-09-21T09:05:01;2.43;;;1.90;;
13085;SDS011;6609;49.882;8.664;2022-09-21T09:07:44;2.97;;;2.07;;
13085;SDS011;6609;49.882;8.664;2022-09-21T09:10:32;2.77;;;2.10;;
13085;SDS011;6609;49.882;8.664;2022-09-21T09:13:04;4.87;;;2.10;;
13085;SDS011;6609;49.882;8.664;2022-09-21T09:15:54;1.70;;;1.60;;
13085;SDS011;6609;49.882;8.664;2022-09-21T09:18:33;2.50;;;1.97;;
13085;SDS011;6609;49.882;8.664;2022-09-21T09:21:09;4.07;;;1.90;;
13085;SDS011;6609;49.882;8.664;2022-09-21T09:23:39;3.27;;;1.87;;
13085;SDS011;6609;49.882;8.664;2022-09-21T09:26:13;2.20;;;1.60;;
13085;SDS011;6609;49.882;8.664;2022-09-21T09:28:46;1.90;;;1.50;;
13085;SDS011;6609;49.882;8.664;2022-09-21T09:31:17;3.03;;;1.40;;
13085;SDS011;6609;49.882;8.664;2022-09-21T09:33:49;2.57;;;1.33;;
13085;SDS011;6609;49.882;8.664;2022-09-21T09:36:20;1.73;;;1.53;;
13085;SDS011;6609;49.882;8.664;2022-09-21T09:38:50;2.40;;;1.40;;
13085;SDS011;6609;49.882;8.664;2022-09-21T09:41:44;1.83;;;1.23;;
13085;SDS011;6609;49.882;8.664;2022-09-21T09:44:26;3.03;;;1.27;;
13085;SDS011;6609;49.882;8.664;2022-09-21T09:47:12;1.87;;;1.33;;
13085;SDS011;6609;49.882;8.664;2022-09-21T09:49:51;1.73;;;1.27;;
13085;SDS011;6609;49.882;8.664;2022-09-21T09:52:25;2.60;;;1.50;;
13085;SDS011;6609;49.882;8.664;2022-09-21T09:54:54;2.80;;;1.40;;
13085;SDS011;6609;49.882;8.664;2022-09-21T09:57:25;1.80;;;1.40;;
13085;SDS011;6609;49.882;8.664;2022-09-21T09:59:54;1.50;;;1.27;;
13085;SDS011;6609;49.882;8.664;2022-09-21T10:02:25;4.40;;;1.27;;
13085;SDS011;6609;49.882;8.664;2022-09-21T10:04:53;2.70;;;1.47;;
13085;SDS011;6609;49.882;8.664;2022-09-21T10:07:34;2.43;;;1.50;;
13085;SDS011;6609;49.882;8.664;2022-09-21T10:10:06;2.47;;;1.37;;
13085;SDS011;6609;49.882;8.664;2022-09-21T10:13:03;1.43;;;1.27;;
13085;SDS011;6609;49.882;8.664;2022-09-21T10:15:38;2.90;;;1.40;;
13085;SDS011;6609;49.882;8.664;2022-09-21T10:18:12;2.30;;;1.43;;
13085;SDS011;6609;49.882;8.664;2022-09-21T10:20:51;2.57;;;1.10;;
13085;SDS011;6609;49.882;8.664;2022-09-21T10:23:19;2.80;;;1.60;;
13085;SDS011;6609;49.882;8.664;2022-09-21T10:25:51;1.50;;;0.83;;
13085;SDS011;6609;49.882;8.664;2022-09-21T10:28:24;3.23;;;1.10;;
13085;SDS011;6609;49.882;8.664;2022-09-21T10:31:06;3.10;;;1.30;;
13085;SDS011;6609;49.882;8.664;2022-09-21T10:33:42;1.67;;;1.07;;
13085;SDS011;6609;49.882;8.664;2022-09-21T10:36:26;1.33;;;1.00;;
13085;SDS011;6609;49.882;8.664;2022-09-21T10:38:55;2.40;;;1.00;;
13085;SDS011;6609;49.882;8.664;2022-09-21T10:41:35;1.97;;;1.00;;
13085;SDS011;6609;49.882;8.664;2022-09-21T10:44:04;1.90;;;1.50;;
13085;SDS011;6609;49.882;8.664;2022-09-21T10:46:40;1.07;;;0.90;;
13085;SDS011;6609;49.882;8.664;2022-09-21T10:49:11;1.10;;;1.00;;
13085;SDS011;6609;49.882;8.664;2022-09-21T10:51:42;2.60;;;1.10;;
13085;SDS011;6609;49.882;8.664;2022-09-21T10:54:13;1.77;;;1.03;;
13085;SDS011;6609;49.882;8.664;2022-09-21T10:56:51;1.67;;;0.90;;
13085;SDS011;6609;49.882;8.664;2022-09-21T10:59:21;1.80;;;0.80;;
13085;SDS011;6609;49.882;8.664;2022-09-21T11:01:51;2.03;;;1.00;;
13085;SDS011;6609;49.882;8.664;2022-09-21T11:04:21;1.97;;;0.90;;
13085;SDS011;6609;49.882;8.664;2022-09-21T11:06:55;1.93;;;0.70;;
13085;SDS011;6609;49.882;8.664;2022-09-21T11:09:28;1.73;;;0.70;;
13085;SDS011;6609;49.882;8.664;2022-09-21T11:12:05;1.07;;;0.70;;
13085;SDS011;6609;49.882;8.664;2022-09-21T11:14:42;1.77;;;1.00;;
13085;SDS011;6609;49.882;8.664;2022-09-21T11:17:16;1.40;;;0.80;;
13085;SDS011;6609;49.882;8.664;2022-09-21T11:19:47;1.50;;;0.90;;
13085;SDS011;6609;49.882;8.664;2022-09-21T11:22:18;2.57;;;1.10;;
13085;SDS011;6609;49.882;8.664;2022-09-21T11:24:53;1.00;;;0.80;;
13085;SDS011;6609;49.882;8.664;2022-09-21T11:27:32;2.40;;;1.63;;
13085;SDS011;6609;49.882;8.664;2022-09-21T11:30:05;2.07;;;0.80;;
13085;SDS011;6609;49.882;8.664;2022-09-21T11:32:40;2.50;;;0.73;;
13085;SDS011;6609;49.882;8.664;2022-09-21T11:35:23;2.87;;;1.10;;
13085;SDS011;6609;49.882;8.664;2022-09-21T11:38:02;1.60;;;0.80;;
13085;SDS011;6609;49.882;8.664;2022-09-21T11:40:37;2.00;;;1.00;;
13085;SDS011;6609;49.882;8.664;2022-09-21T11:43:31;1.17;;;0.80;;
13085;SDS011;6609;49.882;8.664;2022-09-21T11:46:16;0.73;;;0.57;;
13085;SDS011;6609;49.882;8.664;2022-09-21T11:49:03;0.97;;;0.60;;
13085;SDS011;6609;49.882;8.664;2022-09-21T11:51:47;3.00;;;0.60;;
13085;SDS011;6609;49.882;8.664;2022-09-21T11:57:17;1.23;;;0.60;;
13085;SDS011;6609;49.882;8.664;2022-09-21T11:59:51;4.63;;;0.93;;
13085;SDS011;6609;49.882;8.664;2022-09-21T12:02:32;1.27;;;0.70;;
13085;SDS011;6609;49.882;8.664;2022-09-21T12:05:11;0.73;;;0.60;;
13085;SDS011;6609;49.882;8.664;2022-09-21T12:07:51;1.83;;;0.53;;
13085;SDS011;6609;49.882;8.664;2022-09-21T12:10:35;0.50;;;0.40;;
13085;SDS011;6609;49.882;8.664;2022-09-21T12:13:05;1.00;;;0.80;;
13085;SDS011;6609;49.882;8.664;2022-09-21T12:15:40;1.63;;;0.70;;
13085;SDS011;6609;49.882;8.664;2022-09-21T12:18:16;1.80;;;0.70;;
13085;SDS011;6609;49.882;8.664;2022-09-21T12:20:50;1.30;;;0.70;;
13085;SDS011;6609;49.882;8.664;2022-09-21T12:23:22;1.23;;;0.70;;
13085;SDS011;6609;49.882;8.664;2022-09-21T12:25:53;0.93;;;0.70;;
13085;SDS011;6609;49.882;8.664;2022-09-21T12:28:23;0.90;;;0.57;;
13085;SDS011;6609;49.882;8.664;2022-09-21T12:30:54;2.23;;;0.80;;
13085;SDS011;6609;49.882;8.664;2022-09-21T12:33:28;3.50;;;0.77;;
13085;SDS011;6609;49.882;8.664;2022-09-21T12:36:01;0.80;;;0.60;;
13085;SDS011;6609;49.882;8.664;2022-09-21T12:38:34;2.20;;;0.90;;
13085;SDS011;6609;49.882;8.664;2022-09-21T12:41:08;1.50;;;0.80;;
13085;SDS011;6609;49.882;8.664;2022-09-21T12:43:41;0.97;;;0.63;;
13085;SDS011;6609;49.882;8.664;2022-09-21T12:46:13;1.77;;;0.80;;
13085;SDS011;6609;49.882;8.664;2022-09-21T12:48:42;3.07;;;0.90;;
13085;SDS011;6609;49.882;8.664;2022-09-21T12:51:11;2.07;;;0.90;;
13085;SDS011;6609;49.882;8.664;2022-09-21T12:53:40;1.10;;;0.77;;
13085;SDS011;6609;49.882;8.664;2022-09-21T12:56:09;1.90;;;0.80;;
13085;SDS011;6609;49.882;8.664;2022-09-21T12:58:47;1.80;;;0.87;;
13085;SDS011;6609;49.882;8.664;2022-09-21T13:01:23;2.13;;;0.70;;
13085;SDS011;6609;49.882;8.664;2022-09-21T13:04:03;1.57;;;0.87;;
13085;SDS011;6609;49.882;8.664;2022-09-21T13:06:46;0.80;;;0.67;;
13085;SDS011;6609;49.882;8.664;2022-09-21T13:09:25;2.10;;;0.83;;
13085;SDS011;6609;49.882;8.664;2022-09-21T13:11:54;0.83;;;0.70;;
13085;SDS011;6609;49.882;8.664;2022-09-21T13:14:24;1.60;;;0.70;;
13085;SDS011;6609;49.882;8.664;2022-09-21T13:16:54;1.57;;;0.70;;
13085;SDS011;6609;49.882;8.664;2022-09-21T13:19:26;1.30;;;0.50;;
13085;SDS011;6609;49.882;8.664;2022-09-21T13:22:09;1.80;;;0.77;;
13085;SDS011;6609;49.882;8.664;2022-09-21T13:24:38;1.90;;;0.77;;
13085;SDS011;6609;49.882;8.664;2022-09-21T13:27:06;1.43;;;0.80;;
13085;SDS011;6609;49.882;8.664;2022-09-21T13:29:34;1.23;;;0.53;;
13085;SDS011;6609;49.882;8.664;2022-09-21T13:32:19;2.83;;;0.70;;
13085;SDS011;6609;49.882;8.664;2022-09-21T13:34:49;1.67;;;0.60;;
13085;SDS011;6609;49.882;8.664;2022-09-21T13:37:26;2.57;;;0.50;;
13085;SDS011;6609;49.882;8.664;2022-09-21T13:40:28;1.63;;;0.60;;
13085;SDS011;6609;49.882;8.664;2022-09-21T13:43:14;2.67;;;0.73;;
13085;SDS011;6609;49.882;8.664;2022-09-21T13:45:47;1.50;;;0.70;;
13085;SDS011;6609;49.882;8.664;2022-09-21T13:48:17;3.10;;;0.70;;
13085;SDS011;6609;49.882;8.664;2022-09-21T13:50:50;1.13;;;0.70;;
13085;SDS011;6609;49.882;8.664;2022-09-21T13:53:18;0.80;;;0.50;;
13085;SDS011;6609;49.882;8.664;2022-09-21T13:55:49;2.43;;;0.60;;
13085;SDS011;6609;49.882;8.664;2022-09-21T13:58:18;1.50;;;0.60;;
13085;SDS011;6609;49.882;8.664;2022-09-21T14:00:49;0.70;;;0.60;;
13085;SDS011;6609;49.882;8.664;2022-09-21T14:03:21;1.20;;;0.53;;
13085;SDS011;6609;49.882;8.664;2022-09-21T14:05:50;1.60;;;0.57;;
13085;SDS011;6609;49.882;8.664;2022-09-21T14:08:23;1.33;;;0.70;;
13085;SDS011;6609;49.882;8.664;2022-09-21T14:10:55;0.97;;;0.70;;
13085;SDS011;6609;49.882;8.664;2022-09-21T14:13:27;0.80;;;0.70;;
13085;SDS011;6609;49.882;8.664;2022-09-21T14:19:02;2.30;;;0.80;;
13085;SDS011;6609;49.882;8.664;2022-09-21T14:27:36;1.20;;;0.60;;
13085;SDS011;6609;49.882;8.664;2022-09-21T14:30:15;1.90;;;0.83;;
13085;SDS011;6609;49.882;8.664;2022-09-21T14:32:44;1.20;;;0.50;;
13085;SDS011;6609;49.882;8.664;2022-09-21T14:35:17;0.97;;;0.57;;
13085;SDS011;6609;49.882;8.664;2022-09-21T14:37:49;0.87;;;0.60;;
13085;SDS011;6609;49.882;8.664;2022-09-21T14:40:21;2.20;;;0.70;;
13085;SDS011;6609;49.882;8.664;2022-09-21T14:42:50;0.60;;;0.43;;
13085;SDS011;6609;49.882;8.664;2022-09-21T14:45:22;0.70;;;0.50;;
13085;SDS011;6609;49.882;8.664;2022-09-21T14:47:55;1.13;;;0.60;;
13085;SDS011;6609;49.882;8.664;2022-09-21T14:50:30;0.83;;;0.40;;
13085;SDS011;6609;49.882;8.664;2022-09-21T14:53:10;1.13;;;0.50;;
13085;SDS011;6609;49.882;8.664;2022-09-21T14:58:39;2.30;;;0.60;;
13085;SDS011;6609;49.882;8.664;2022-09-21T15:01:20;1.53;;;0.87;;
13085;SDS011;6609;49.882;8.664;2022-09-21T15:03:56;3.17;;;1.33;;
13085;SDS011;6609;49.882;8.664;2022-09-21T15:06:27;4.63;;;1.67;;
13085;SDS011;6609;49.882;8.664;2022-09-21T15:09:34;2.93;;;1.10;;
13085;SDS011;6609;49.882;8.664;2022-09-21T15:12:34;1.87;;;0.77;;
13085;SDS011;6609;49.882;8.664;2022-09-21T15:15:12;7.37;;;2.37;;
13085;SDS011;6609;49.882;8.664;2022-09-21T15:17:51;1.77;;;1.07;;
13085;SDS011;6609;49.882;8.664;2022-09-21T15:20:23;2.63;;;0.70;;
13085;SDS011;6609;49.882;8.664;2022-09-21T15:22:52;1.40;;;0.73;;
13085;SDS011;6609;49.882;8.664;2022-09-21T15:25:19;3.33;;;0.83;;
13085;SDS011;6609;49.882;8.664;2022-09-21T15:27:48;1.03;;;0.73;;
13085;SDS011;6609;49.882;8.664;2022-09-21T15:30:19;1.43;;;0.70;;
13085;SDS011;6609;49.882;8.664;2022-09-21T15:32:47;1.23;;;0.70;;
13085;SDS011;6609;49.882;8.664;2022-09-21T15:35:18;2.53;;;0.70;;
13085;SDS011;6609;49.882;8.664;2022-09-21T15:37:45;1.40;;;1.00;;
13085;SDS011;6609;49.882;8.664;2022-09-21T15:40:17;1.43;;;1.13;;
13085;SDS011;6609;49.882;8.664;2022-09-21T15:42:59;2.37;;;0.70;;
13085;SDS011;6609;49.882;8.664;2022-09-21T15:45:30;2.83;;;1.03;;